createdAt,value
2023-01-12T00:03:10.781Z,8.34
2023-01-12T00:08:13.801Z,8.29
2023-01-12T00:13:16.832Z,8.32
2023-01-12T00:18:21.352Z,8.34
2023-01-12T00:23:30.585Z,8.32
2023-01-12T00:28:33.732Z,8.28
2023-01-12T00:33:39.203Z,8.34
2023-01-12T00:38:42.634Z,8.37
2023-01-12T00:44:02.842Z,8.38
2023-01-12T00:49:08.092Z,8.40
2023-01-12T00:54:11.303Z,8.46
2023-01-12T00:59:14.592Z,8.48
2023-01-12T01:04:19.401Z,8.50
2023-01-12T01:09:22.685Z,8.52
2023-01-12T01:14:26.236Z,8.55
2023-01-12T01:19:30.917Z,8.56
2023-01-12T01:24:33.886Z,8.57
2023-01-12T01:29:36.980Z,8.53
2023-01-12T01:34:42.047Z,8.57
2023-01-12T01:39:45.177Z,8.56
2023-01-12T01:44:55.508Z,8.56
2023-01-12T01:50:03.147Z,8.56
2023-01-12T01:55:09.528Z,8.53
2023-01-12T02:00:14.228Z,8.52
2023-01-12T02:05:21.906Z,8.51
2023-01-12T02:10:26.809Z,8.49
2023-01-12T02:15:57.328Z,8.46
2023-01-12T02:21:11.639Z,8.47
2023-01-12T02:26:47.228Z,8.48
2023-01-12T02:32:02.533Z,8.48
2023-01-12T02:37:14.514Z,8.47
2023-01-12T02:42:43.440Z,8.43
2023-01-12T02:47:51.994Z,8.41
2023-01-12T02:53:04.060Z,8.40
2023-01-12T02:58:11.062Z,8.40
2023-01-12T03:03:17.400Z,8.38
2023-01-12T03:08:28.785Z,8.36
2023-01-12T03:13:36.058Z,8.37
2023-01-12T03:18:46.062Z,8.35
2023-01-12T03:23:55.596Z,8.34
2023-01-12T03:29:05.320Z,8.30
2023-01-12T03:34:10.831Z,8.30
2023-01-12T03:39:22.957Z,8.29
2023-01-12T03:44:41.733Z,8.26
2023-01-12T03:49:52.032Z,8.24
2023-01-12T03:54:58.457Z,8.22
2023-01-12T04:00:04.064Z,8.19
2023-01-12T04:05:18.059Z,8.21
2023-01-12T04:10:21.078Z,8.21
2023-01-12T04:15:24.105Z,8.22
2023-01-12T04:20:28.705Z,8.24
2023-01-12T04:25:31.970Z,8.23
2023-01-12T04:30:35.968Z,8.27
2023-01-12T04:35:40.450Z,8.29
2023-01-12T04:40:43.423Z,8.31
2023-01-12T04:45:47.846Z,8.33
2023-01-12T04:50:52.186Z,8.31
2023-01-12T04:55:57.709Z,8.37
2023-01-12T05:01:09.479Z,8.37
2023-01-12T05:06:14.374Z,8.39
2023-01-12T05:11:17.442Z,8.37
2023-01-12T05:16:20.965Z,8.40
2023-01-12T05:21:26.594Z,8.41
2023-01-12T05:26:29.575Z,8.42
2023-01-12T05:31:35.434Z,8.42
2023-01-12T05:36:39.886Z,8.40
2023-01-12T05:42:02.995Z,8.47
2023-01-12T05:47:06.216Z,8.50
2023-01-12T05:52:10.687Z,8.52
2023-01-12T05:57:13.895Z,8.54
2023-01-12T06:02:17.965Z,8.54
2023-01-12T06:07:24.189Z,8.55
2023-01-12T06:12:44.827Z,8.61
2023-01-12T06:17:47.874Z,8.60
2023-01-12T06:22:52.224Z,8.60
2023-01-12T06:27:57.866Z,8.71
2023-01-12T06:33:03.120Z,8.77
2023-01-12T06:38:07.654Z,8.81
2023-01-12T06:43:10.776Z,8.83
2023-01-12T06:48:13.717Z,8.89
2023-01-12T06:53:18.175Z,8.92
2023-01-12T06:58:21.173Z,8.94
2023-01-12T07:03:24.555Z,8.97
2023-01-12T07:08:29.282Z,9.00
2023-01-12T07:13:32.845Z,9.05
2023-01-12T07:18:36.332Z,9.06
2023-01-12T07:23:42.269Z,8.99
2023-01-12T07:28:45.457Z,9.11
2023-01-12T07:33:48.942Z,9.15
2023-01-12T07:38:55.856Z,9.17
2023-01-12T07:43:59.214Z,9.26
2023-01-12T07:49:02.277Z,9.27
2023-01-12T07:54:06.890Z,9.27
2023-01-12T07:59:10.327Z,9.32
2023-01-12T08:04:14.016Z,9.36
2023-01-12T08:09:18.597Z,9.34
2023-01-12T08:14:30.372Z,9.41
2023-01-12T08:19:42.002Z,9.44
2023-01-12T08:25:02.421Z,9.51
2023-01-12T08:30:08.736Z,9.53
2023-01-12T08:35:15.071Z,9.58
2023-01-12T08:40:19.965Z,9.61
2023-01-12T08:45:23.062Z,9.65
2023-01-12T08:50:30.166Z,9.65
2023-01-12T08:55:34.763Z,9.66
2023-01-12T09:00:37.870Z,9.71
2023-01-12T09:05:40.962Z,9.74
2023-01-12T09:10:45.441Z,9.77
2023-01-12T09:16:01.426Z,9.76
2023-01-12T09:21:12.978Z,9.82
2023-01-12T09:26:20.416Z,9.88
2023-01-12T09:31:26.542Z,9.91
2023-01-12T09:36:31.759Z,9.93
2023-01-12T09:41:57.427Z,9.91
2023-01-12T09:47:00.906Z,9.99
2023-01-12T09:52:13.321Z,10.04
2023-01-12T09:57:51.677Z,10.08
2023-01-12T10:03:04.765Z,10.09
2023-01-12T10:08:17.442Z,10.10
2023-01-12T10:13:22.976Z,10.17
2023-01-12T10:18:32.257Z,10.20
2023-01-12T10:23:35.395Z,10.24
2023-01-12T10:28:43.787Z,10.23
2023-01-12T10:34:04.999Z,10.27
2023-01-12T10:39:30.407Z,10.24
2023-01-12T10:44:34.858Z,10.26
2023-01-12T10:49:38.369Z,10.25
2023-01-12T10:54:42.625Z,10.25
2023-01-12T10:59:54.651Z,10.22
2023-01-12T11:04:57.645Z,10.27
2023-01-12T11:10:20.702Z,10.29
2023-01-12T11:15:25.338Z,10.28
2023-01-12T11:20:35.361Z,10.27
2023-01-12T11:25:44.137Z,10.28
2023-01-12T11:30:54.057Z,10.24
2023-01-12T11:36:04.199Z,10.31
2023-01-12T11:41:11.284Z,10.31
2023-01-12T11:46:22.811Z,10.33
2023-01-12T11:51:26.281Z,10.32
2023-01-12T11:57:02.275Z,10.38
2023-01-12T12:02:22.590Z,10.38
2023-01-12T12:07:37.479Z,10.36
2023-01-12T12:12:49.030Z,10.40
2023-01-12T12:18:06.442Z,10.40
2023-01-12T12:23:25.525Z,10.30
2023-01-12T12:28:48.987Z,10.41
2023-01-12T12:34:11.223Z,10.39
2023-01-12T12:39:34.565Z,10.39
2023-01-12T12:45:14.668Z,10.38
2023-01-12T12:50:23.293Z,10.33
2023-01-12T12:55:28.306Z,10.36
2023-01-12T13:00:40.407Z,10.31
2023-01-12T13:05:48.279Z,10.35
2023-01-12T13:10:54.596Z,10.35
2023-01-12T13:16:45.481Z,10.30
2023-01-12T13:21:58.547Z,10.36
2023-01-12T13:27:02.072Z,10.36
2023-01-12T13:32:43.610Z,10.38
2023-01-12T13:37:53.458Z,10.35
2023-01-12T13:43:26.307Z,10.32
2023-01-12T13:48:33.519Z,10.31
2023-01-12T13:53:39.282Z,10.31
2023-01-12T13:58:44.483Z,10.31
2023-01-12T14:04:22.819Z,10.31
2023-01-12T14:09:42.078Z,10.31
2023-01-12T14:15:36.066Z,10.28
2023-01-12T14:20:45.389Z,10.17
2023-01-12T14:26:05.955Z,10.27
2023-01-12T14:31:16.905Z,10.27
2023-01-12T14:36:32.453Z,10.29
2023-01-12T14:41:54.940Z,10.26
2023-01-12T14:46:58.126Z,10.28
2023-01-12T14:52:26.306Z,10.18
2023-01-12T14:57:34.966Z,10.27
2023-01-12T15:02:41.303Z,10.24
2023-01-12T15:07:55.749Z,10.22
2023-01-12T15:13:14.001Z,10.24
2023-01-12T15:18:34.582Z,10.25
2023-01-12T15:23:58.140Z,10.20
2023-01-12T15:29:05.496Z,10.13
2023-01-12T15:34:14.128Z,10.14
2023-01-12T15:40:01.608Z,10.17
2023-01-12T15:45:19.228Z,9.99
2023-01-12T15:50:22.731Z,10.17
2023-01-12T15:55:31.628Z,10.07
2023-01-12T16:00:42.371Z,10.11
2023-01-12T16:05:47.976Z,10.12
2023-01-12T16:11:05.191Z,10.07
2023-01-12T16:16:16.077Z,10.10
2023-01-12T16:21:22.591Z,10.10
2023-01-12T16:26:31.029Z,10.07
2023-01-12T16:31:39.509Z,10.08
2023-01-12T16:36:42.796Z,10.10
2023-01-12T16:41:46.013Z,10.07
2023-01-12T16:46:51.222Z,10.09
2023-01-12T16:51:55.458Z,10.08
2023-01-12T16:57:01.828Z,10.10
2023-01-12T17:02:08.405Z,10.06
2023-01-12T17:07:12.855Z,10.06
2023-01-12T17:12:16.504Z,10.08
2023-01-12T17:17:21.199Z,10.09
2023-01-12T17:22:25.768Z,10.07
2023-01-12T17:27:29.101Z,10.06
2023-01-12T17:32:34.334Z,10.06
2023-01-12T17:37:37.971Z,10.07
2023-01-12T17:42:58.971Z,10.07
2023-01-12T17:48:03.742Z,10.09
2023-01-12T17:53:09.310Z,10.04
2023-01-12T17:58:12.921Z,10.05
2023-01-12T18:03:17.601Z,10.06
2023-01-12T18:08:20.867Z,9.97
2023-01-12T18:13:24.431Z,10.07
2023-01-12T18:18:30.162Z,10.07
2023-01-12T18:23:33.479Z,10.07
2023-01-12T18:28:36.692Z,10.02
2023-01-12T18:33:41.784Z,10.05
2023-01-12T18:38:45.233Z,10.04
2023-01-12T18:43:49.339Z,10.01
2023-01-12T18:48:53.867Z,10.02
2023-01-12T18:53:57.817Z,10.02
2023-01-12T18:59:04.366Z,9.98
2023-01-12T19:04:10.107Z,10.00
2023-01-12T19:09:31.365Z,10.02
2023-01-12T19:14:53.203Z,9.94
2023-01-12T19:19:59.043Z,9.97
2023-01-12T19:25:19.493Z,9.98
2023-01-12T19:30:23.410Z,9.97
2023-01-12T19:35:30.551Z,9.95
2023-01-12T19:40:36.688Z,9.91
2023-01-12T19:45:40.615Z,9.94
2023-01-12T19:50:45.692Z,9.93
2023-01-12T19:55:51.104Z,9.93
2023-01-12T20:00:55.762Z,9.89
2023-01-12T20:06:00.332Z,9.94
2023-01-12T20:11:05.477Z,9.96
2023-01-12T20:16:10.638Z,9.96
2023-01-12T20:21:15.855Z,9.92
2023-01-12T20:26:19.016Z,9.96
2023-01-12T20:31:22.329Z,9.98
2023-01-12T20:36:27.229Z,9.99
2023-01-12T20:41:30.461Z,9.99
2023-01-12T20:46:33.672Z,9.99
2023-01-12T20:51:38.281Z,9.97
2023-01-12T20:56:41.210Z,9.96
2023-01-12T21:01:44.619Z,9.95
2023-01-12T21:06:49.230Z,9.94
2023-01-12T21:11:52.321Z,9.90
2023-01-12T21:16:55.821Z,9.94
2023-01-12T21:22:00.618Z,9.91
2023-01-12T21:27:04.088Z,9.89
2023-01-12T21:32:07.399Z,9.84
2023-01-12T21:37:11.941Z,9.81
2023-01-12T21:42:32.717Z,9.81
2023-01-12T21:47:35.854Z,9.70
2023-01-12T21:52:41.635Z,9.76
2023-01-12T21:57:46.001Z,9.78
2023-01-12T22:02:51.139Z,9.83
2023-01-12T22:07:57.856Z,9.80
2023-01-12T22:13:04.208Z,9.70
2023-01-12T22:18:07.816Z,9.68
2023-01-12T22:23:14.201Z,9.72
2023-01-12T22:28:17.432Z,9.75
2023-01-12T22:33:20.611Z,9.74
2023-01-12T22:38:25.105Z,9.72
2023-01-12T22:43:28.169Z,9.72
2023-01-12T22:48:34.070Z,9.65
2023-01-12T22:53:38.450Z,9.59
2023-01-12T22:58:41.936Z,9.38
2023-01-12T23:03:45.540Z,9.25
2023-01-12T23:08:50.540Z,9.07
2023-01-12T23:13:54.433Z,8.89
2023-01-12T23:18:57.515Z,8.78
2023-01-12T23:24:02.363Z,8.66
2023-01-12T23:29:05.436Z,8.63
2023-01-12T23:34:08.547Z,8.52
2023-01-12T23:39:13.018Z,8.34
2023-01-12T23:44:16.125Z,8.27
2023-01-12T23:49:19.188Z,8.18
2023-01-12T23:54:23.615Z,8.06
2023-01-12T23:59:26.684Z,8.11
